sensor_id;sensor_type;location;lat;lon;timestamp;P1;durP1;ratioP1;P2;durP2;ratioP2
23561;SDS011;11959;49.418;8.728;2024-01-11T00:01:26;34.80;;;17.92;;
23561;SDS011;11959;49.418;8.728;2024-01-11T00:03:52;32.25;;;17.10;;
23561;SDS011;11959;49.418;8.728;2024-01-11T00:06:18;34.00;;;19.20;;
23561;SDS011;11959;49.418;8.728;2024-01-11T00:08:43;34.55;;;17.38;;
23561;SDS011;11959;49.418;8.728;2024-01-11T00:11:10;33.35;;;18.05;;
23561;SDS011;11959;49.418;8.728;2024-01-11T00:13:35;35.53;;;16.60;;
23561;SDS011;11959;49.418;8.728;2024-01-11T00:16:01;34.90;;;17.85;;
23561;SDS011;11959;49.418;8.728;2024-01-11T00:18:27;34.38;;;17.63;;
23561;SDS011;11959;49.418;8.728;2024-01-11T00:20:53;35.95;;;17.65;;
23561;SDS011;11959;49.418;8.728;2024-01-11T00:23:19;29.65;;;16.23;;
23561;SDS011;11959;49.418;8.728;2024-01-11T00:25:44;36.15;;;17.02;;
23561;SDS011;11959;49.418;8.728;2024-01-11T00:28:10;32.83;;;16.83;;
23561;SDS011;11959;49.418;8.728;2024-01-11T00:30:35;31.35;;;16.33;;
23561;SDS011;11959;49.418;8.728;2024-01-11T00:33:01;34.53;;;17.48;;
23561;SDS011;11959;49.418;8.728;2024-01-11T00:35:27;35.50;;;17.58;;
23561;SDS011;11959;49.418;8.728;2024-01-11T00:37:53;35.85;;;17.88;;
23561;SDS011;11959;49.418;8.728;2024-01-11T00:40:18;34.42;;;17.98;;
23561;SDS011;11959;49.418;8.728;2024-01-11T00:42:44;31.00;;;17.42;;
23561;SDS011;11959;49.418;8.728;2024-01-11T00:45:10;35.58;;;18.25;;
23561;SDS011;11959;49.418;8.728;2024-01-11T00:47:35;33.50;;;17.27;;
23561;SDS011;11959;49.418;8.728;2024-01-11T00:50:01;34.72;;;17.08;;
23561;SDS011;11959;49.418;8.728;2024-01-11T00:52:27;28.33;;;15.60;;
23561;SDS011;11959;49.418;8.728;2024-01-11T00:54:52;33.92;;;17.02;;
23561;SDS011;11959;49.418;8.728;2024-01-11T00:57:18;34.50;;;17.25;;
23561;SDS011;11959;49.418;8.728;2024-01-11T00:59:43;29.98;;;16.50;;
23561;SDS011;11959;49.418;8.728;2024-01-11T01:02:09;30.75;;;16.48;;
23561;SDS011;11959;49.418;8.728;2024-01-11T01:04:38;31.10;;;15.57;;
23561;SDS011;11959;49.418;8.728;2024-01-11T01:07:04;30.55;;;15.82;;
23561;SDS011;11959;49.418;8.728;2024-01-11T01:09:30;32.75;;;15.52;;
23561;SDS011;11959;49.418;8.728;2024-01-11T01:11:56;29.77;;;16.25;;
23561;SDS011;11959;49.418;8.728;2024-01-11T01:14:22;33.80;;;16.75;;
23561;SDS011;11959;49.418;8.728;2024-01-11T01:16:47;32.03;;;16.27;;
23561;SDS011;11959;49.418;8.728;2024-01-11T01:19:13;30.40;;;16.27;;
23561;SDS011;11959;49.418;8.728;2024-01-11T01:21:39;26.65;;;15.43;;
23561;SDS011;11959;49.418;8.728;2024-01-11T01:24:04;30.73;;;16.73;;
23561;SDS011;11959;49.418;8.728;2024-01-11T01:26:30;30.10;;;16.40;;
23561;SDS011;11959;49.418;8.728;2024-01-11T01:28:55;33.88;;;16.27;;
23561;SDS011;11959;49.418;8.728;2024-01-11T01:31:21;33.25;;;17.80;;
23561;SDS011;11959;49.418;8.728;2024-01-11T01:33:47;32.05;;;16.83;;
23561;SDS011;11959;49.418;8.728;2024-01-11T01:36:12;33.80;;;17.50;;
23561;SDS011;11959;49.418;8.728;2024-01-11T01:38:38;33.38;;;17.63;;
23561;SDS011;11959;49.418;8.728;2024-01-11T01:41:04;34.45;;;17.27;;
23561;SDS011;11959;49.418;8.728;2024-01-11T01:43:30;31.23;;;17.17;;
23561;SDS011;11959;49.418;8.728;2024-01-11T01:45:55;33.65;;;18.08;;
23561;SDS011;11959;49.418;8.728;2024-01-11T01:48:22;31.75;;;17.38;;
23561;SDS011;11959;49.418;8.728;2024-01-11T01:50:47;31.35;;;17.13;;
23561;SDS011;11959;49.418;8.728;2024-01-11T01:53:19;35.08;;;18.20;;
23561;SDS011;11959;49.418;8.728;2024-01-11T01:55:48;32.60;;;17.08;;
23561;SDS011;11959;49.418;8.728;2024-01-11T01:58:15;36.22;;;18.58;;
23561;SDS011;11959;49.418;8.728;2024-01-11T02:00:43;34.85;;;16.85;;
23561;SDS011;11959;49.418;8.728;2024-01-11T02:03:09;33.00;;;17.40;;
23561;SDS011;11959;49.418;8.728;2024-01-11T02:05:35;31.15;;;16.05;;
23561;SDS011;11959;49.418;8.728;2024-01-11T02:08:03;32.47;;;16.23;;
23561;SDS011;11959;49.418;8.728;2024-01-11T02:10:30;32.20;;;16.75;;
23561;SDS011;11959;49.418;8.728;2024-01-11T02:12:58;31.63;;;16.90;;
23561;SDS011;11959;49.418;8.728;2024-01-11T02:15:24;32.97;;;17.75;;
23561;SDS011;11959;49.418;8.728;2024-01-11T02:17:50;32.88;;;17.08;;
23561;SDS011;11959;49.418;8.728;2024-01-11T02:20:16;32.28;;;17.27;;
23561;SDS011;11959;49.418;8.728;2024-01-11T02:22:42;30.60;;;17.23;;
23561;SDS011;11959;49.418;8.728;2024-01-11T02:25:12;32.80;;;16.90;;
23561;SDS011;11959;49.418;8.728;2024-01-11T02:27:47;31.85;;;17.40;;
23561;SDS011;11959;49.418;8.728;2024-01-11T02:30:14;31.40;;;17.52;;
23561;SDS011;11959;49.418;8.728;2024-01-11T02:32:42;31.10;;;17.00;;
23561;SDS011;11959;49.418;8.728;2024-01-11T02:35:11;32.35;;;16.30;;
23561;SDS011;11959;49.418;8.728;2024-01-11T02:37:39;33.95;;;16.13;;
23561;SDS011;11959;49.418;8.728;2024-01-11T02:40:08;29.40;;;15.85;;
23561;SDS011;11959;49.418;8.728;2024-01-11T02:42:35;32.20;;;16.23;;
23561;SDS011;11959;49.418;8.728;2024-01-11T02:45:02;29.23;;;15.50;;
23561;SDS011;11959;49.418;8.728;2024-01-11T02:47:28;28.85;;;15.05;;
23561;SDS011;11959;49.418;8.728;2024-01-11T02:49:54;31.10;;;15.95;;
23561;SDS011;11959;49.418;8.728;2024-01-11T02:52:20;29.10;;;15.35;;
23561;SDS011;11959;49.418;8.728;2024-01-11T02:54:46;32.67;;;15.57;;
23561;SDS011;11959;49.418;8.728;2024-01-11T02:57:11;30.05;;;15.95;;
23561;SDS011;11959;49.418;8.728;2024-01-11T02:59:37;28.15;;;15.60;;
23561;SDS011;11959;49.418;8.728;2024-01-11T03:02:02;28.25;;;15.00;;
23561;SDS011;11959;49.418;8.728;2024-01-11T03:04:29;31.45;;;16.35;;
23561;SDS011;11959;49.418;8.728;2024-01-11T03:06:54;26.70;;;15.27;;
23561;SDS011;11959;49.418;8.728;2024-01-11T03:09:20;33.22;;;16.58;;
23561;SDS011;11959;49.418;8.728;2024-01-11T03:11:46;29.73;;;15.80;;
23561;SDS011;11959;49.418;8.728;2024-01-11T03:14:12;28.25;;;15.27;;
23561;SDS011;11959;49.418;8.728;2024-01-11T03:16:37;30.42;;;15.20;;
23561;SDS011;11959;49.418;8.728;2024-01-11T03:19:04;29.00;;;16.38;;
23561;SDS011;11959;49.418;8.728;2024-01-11T03:21:30;30.88;;;15.68;;
23561;SDS011;11959;49.418;8.728;2024-01-11T03:23:56;31.92;;;16.40;;
23561;SDS011;11959;49.418;8.728;2024-01-11T03:26:22;31.13;;;15.93;;
23561;SDS011;11959;49.418;8.728;2024-01-11T03:28:47;31.67;;;15.98;;
23561;SDS011;11959;49.418;8.728;2024-01-11T03:31:13;37.35;;;17.17;;
23561;SDS011;11959;49.418;8.728;2024-01-11T03:33:39;34.20;;;16.35;;
23561;SDS011;11959;49.418;8.728;2024-01-11T03:36:11;31.55;;;16.08;;
23561;SDS011;11959;49.418;8.728;2024-01-11T03:38:37;32.63;;;16.80;;
23561;SDS011;11959;49.418;8.728;2024-01-11T03:41:09;30.40;;;16.58;;
23561;SDS011;11959;49.418;8.728;2024-01-11T03:43:38;33.47;;;16.60;;
23561;SDS011;11959;49.418;8.728;2024-01-11T03:46:04;32.33;;;16.65;;
23561;SDS011;11959;49.418;8.728;2024-01-11T03:48:30;32.75;;;15.98;;
23561;SDS011;11959;49.418;8.728;2024-01-11T03:50:56;34.30;;;17.02;;
23561;SDS011;11959;49.418;8.728;2024-01-11T03:53:22;32.30;;;16.58;;
23561;SDS011;11959;49.418;8.728;2024-01-11T03:55:47;33.28;;;16.35;;
23561;SDS011;11959;49.418;8.728;2024-01-11T03:58:13;32.08;;;16.90;;
23561;SDS011;11959;49.418;8.728;2024-01-11T04:00:39;29.65;;;15.75;;
23561;SDS011;11959;49.418;8.728;2024-01-11T04:03:06;30.98;;;16.50;;
23561;SDS011;11959;49.418;8.728;2024-01-11T04:05:32;30.13;;;16.00;;
23561;SDS011;11959;49.418;8.728;2024-01-11T04:07:57;34.03;;;17.05;;
23561;SDS011;11959;49.418;8.728;2024-01-11T04:10:23;32.88;;;17.55;;
23561;SDS011;11959;49.418;8.728;2024-01-11T04:12:48;32.50;;;16.75;;
23561;SDS011;11959;49.418;8.728;2024-01-11T04:15:14;33.70;;;17.13;;
23561;SDS011;11959;49.418;8.728;2024-01-11T04:17:40;29.00;;;15.85;;
23561;SDS011;11959;49.418;8.728;2024-01-11T04:20:06;32.20;;;15.77;;
23561;SDS011;11959;49.418;8.728;2024-01-11T04:22:33;35.65;;;16.45;;
23561;SDS011;11959;49.418;8.728;2024-01-11T04:24:59;32.50;;;16.50;;
23561;SDS011;11959;49.418;8.728;2024-01-11T04:27:25;28.15;;;15.23;;
23561;SDS011;11959;49.418;8.728;2024-01-11T04:29:51;35.42;;;16.45;;
23561;SDS011;11959;49.418;8.728;2024-01-11T04:32:16;32.33;;;16.20;;
23561;SDS011;11959;49.418;8.728;2024-01-11T04:34:42;30.90;;;16.23;;
23561;SDS011;11959;49.418;8.728;2024-01-11T04:37:08;30.60;;;16.10;;
23561;SDS011;11959;49.418;8.728;2024-01-11T04:39:33;32.25;;;16.67;;
23561;SDS011;11959;49.418;8.728;2024-01-11T04:41:59;29.73;;;16.52;;
23561;SDS011;11959;49.418;8.728;2024-01-11T04:44:25;30.05;;;16.42;;
23561;SDS011;11959;49.418;8.728;2024-01-11T04:46:51;29.60;;;16.67;;
23561;SDS011;11959;49.418;8.728;2024-01-11T04:49:17;30.10;;;16.73;;
23561;SDS011;11959;49.418;8.728;2024-01-11T04:51:42;30.65;;;16.38;;
23561;SDS011;11959;49.418;8.728;2024-01-11T04:54:08;32.22;;;16.13;;
23561;SDS011;11959;49.418;8.728;2024-01-11T04:56:34;31.85;;;16.60;;
23561;SDS011;11959;49.418;8.728;2024-01-11T04:58:59;32.08;;;17.20;;
23561;SDS011;11959;49.418;8.728;2024-01-11T05:01:25;30.85;;;15.77;;
23561;SDS011;11959;49.418;8.728;2024-01-11T05:03:51;32.80;;;17.15;;
23561;SDS011;11959;49.418;8.728;2024-01-11T05:08:43;32.83;;;16.58;;
23561;SDS011;11959;49.418;8.728;2024-01-11T05:11:28;28.02;;;16.10;;
23561;SDS011;11959;49.418;8.728;2024-01-11T05:13:53;31.10;;;15.90;;
23561;SDS011;11959;49.418;8.728;2024-01-11T05:16:21;28.25;;;15.52;;
23561;SDS011;11959;49.418;8.728;2024-01-11T05:18:54;32.00;;;16.95;;
23561;SDS011;11959;49.418;8.728;2024-01-11T05:21:21;31.20;;;17.52;;
23561;SDS011;11959;49.418;8.728;2024-01-11T05:23:47;32.55;;;16.23;;
23561;SDS011;11959;49.418;8.728;2024-01-11T05:26:14;33.50;;;16.13;;
23561;SDS011;11959;49.418;8.728;2024-01-11T05:28:40;34.80;;;16.38;;
23561;SDS011;11959;49.418;8.728;2024-01-11T05:31:10;33.28;;;16.90;;
23561;SDS011;11959;49.418;8.728;2024-01-11T05:33:37;33.20;;;17.13;;
23561;SDS011;11959;49.418;8.728;2024-01-11T05:36:03;35.30;;;17.73;;
23561;SDS011;11959;49.418;8.728;2024-01-11T05:38:29;32.22;;;16.70;;
23561;SDS011;11959;49.418;8.728;2024-01-11T05:40:55;32.33;;;17.35;;
23561;SDS011;11959;49.418;8.728;2024-01-11T05:43:21;32.17;;;17.02;;
23561;SDS011;11959;49.418;8.728;2024-01-11T05:45:48;32.35;;;17.38;;
23561;SDS011;11959;49.418;8.728;2024-01-11T05:48:15;34.92;;;17.98;;
23561;SDS011;11959;49.418;8.728;2024-01-11T05:50:41;31.48;;;16.80;;
23561;SDS011;11959;49.418;8.728;2024-01-11T05:53:10;31.00;;;16.60;;
23561;SDS011;11959;49.418;8.728;2024-01-11T05:55:36;33.95;;;17.33;;
23561;SDS011;11959;49.418;8.728;2024-01-11T05:58:02;35.15;;;17.58;;
23561;SDS011;11959;49.418;8.728;2024-01-11T06:00:28;34.00;;;16.75;;
23561;SDS011;11959;49.418;8.728;2024-01-11T06:02:54;30.42;;;16.00;;
23561;SDS011;11959;49.418;8.728;2024-01-11T06:05:20;34.03;;;17.83;;
23561;SDS011;11959;49.418;8.728;2024-01-11T06:07:46;31.52;;;17.20;;
23561;SDS011;11959;49.418;8.728;2024-01-11T06:10:12;33.50;;;17.83;;
23561;SDS011;11959;49.418;8.728;2024-01-11T06:12:39;36.50;;;17.67;;
23561;SDS011;11959;49.418;8.728;2024-01-11T06:15:05;33.05;;;17.20;;
23561;SDS011;11959;49.418;8.728;2024-01-11T06:17:31;35.33;;;18.42;;
23561;SDS011;11959;49.418;8.728;2024-01-11T06:19:56;38.75;;;20.27;;
23561;SDS011;11959;49.418;8.728;2024-01-11T06:22:22;35.67;;;18.45;;
23561;SDS011;11959;49.418;8.728;2024-01-11T06:24:47;34.72;;;16.92;;
23561;SDS011;11959;49.418;8.728;2024-01-11T06:27:13;34.55;;;19.40;;
23561;SDS011;11959;49.418;8.728;2024-01-11T06:29:39;32.08;;;17.30;;
23561;SDS011;11959;49.418;8.728;2024-01-11T06:32:05;33.75;;;18.33;;
23561;SDS011;11959;49.418;8.728;2024-01-11T06:34:31;31.08;;;17.42;;
23561;SDS011;11959;49.418;8.728;2024-01-11T06:36:56;31.67;;;17.55;;
23561;SDS011;11959;49.418;8.728;2024-01-11T06:39:22;29.77;;;16.90;;
23561;SDS011;11959;49.418;8.728;2024-01-11T06:41:48;37.35;;;17.60;;
23561;SDS011;11959;49.418;8.728;2024-01-11T06:44:13;36.60;;;18.00;;
23561;SDS011;11959;49.418;8.728;2024-01-11T06:46:39;33.47;;;18.42;;
23561;SDS011;11959;49.418;8.728;2024-01-11T06:49:06;32.70;;;17.48;;
23561;SDS011;11959;49.418;8.728;2024-01-11T06:51:32;39.60;;;20.25;;
23561;SDS011;11959;49.418;8.728;2024-01-11T06:53:58;34.25;;;18.23;;
23561;SDS011;11959;49.418;8.728;2024-01-11T06:56:26;47.30;;;24.98;;
23561;SDS011;11959;49.418;8.728;2024-01-11T06:58:52;44.95;;;23.30;;
23561;SDS011;11959;49.418;8.728;2024-01-11T07:01:18;36.05;;;20.08;;
23561;SDS011;11959;49.418;8.728;2024-01-11T07:03:44;33.80;;;17.98;;
23561;SDS011;11959;49.418;8.728;2024-01-11T07:06:09;36.03;;;19.92;;
23561;SDS011;11959;49.418;8.728;2024-01-11T07:08:35;39.95;;;19.15;;
23561;SDS011;11959;49.418;8.728;2024-01-11T07:11:01;37.83;;;18.33;;
23561;SDS011;11959;49.418;8.728;2024-01-11T07:13:28;37.05;;;18.42;;
23561;SDS011;11959;49.418;8.728;2024-01-11T07:15:56;38.00;;;19.35;;
23561;SDS011;11959;49.418;8.728;2024-01-11T07:18:23;33.53;;;17.90;;
23561;SDS011;11959;49.418;8.728;2024-01-11T07:20:49;36.60;;;18.58;;
23561;SDS011;11959;49.418;8.728;2024-01-11T07:23:15;30.92;;;17.85;;
23561;SDS011;11959;49.418;8.728;2024-01-11T07:25:41;35.33;;;18.70;;
23561;SDS011;11959;49.418;8.728;2024-01-11T07:28:07;34.70;;;18.10;;
23561;SDS011;11959;49.418;8.728;2024-01-11T07:30:32;32.40;;;17.23;;
23561;SDS011;11959;49.418;8.728;2024-01-11T07:32:58;37.60;;;18.48;;
23561;SDS011;11959;49.418;8.728;2024-01-11T07:35:24;30.70;;;17.48;;
23561;SDS011;11959;49.418;8.728;2024-01-11T07:37:50;32.42;;;18.20;;
23561;SDS011;11959;49.418;8.728;2024-01-11T07:40:15;36.95;;;19.77;;
23561;SDS011;11959;49.418;8.728;2024-01-11T07:42:41;36.13;;;18.77;;
23561;SDS011;11959;49.418;8.728;2024-01-11T07:45:08;42.40;;;20.67;;
23561;SDS011;11959;49.418;8.728;2024-01-11T07:47:35;34.60;;;18.48;;
23561;SDS011;11959;49.418;8.728;2024-01-11T07:50:03;35.70;;;18.58;;
23561;SDS011;11959;49.418;8.728;2024-01-11T07:52:31;39.00;;;19.17;;
23561;SDS011;11959;49.418;8.728;2024-01-11T07:54:57;36.35;;;18.45;;
23561;SDS011;11959;49.418;8.728;2024-01-11T07:57:25;37.25;;;19.42;;
23561;SDS011;11959;49.418;8.728;2024-01-11T07:59:50;32.90;;;18.40;;
23561;SDS011;11959;49.418;8.728;2024-01-11T08:02:16;36.85;;;19.40;;
23561;SDS011;11959;49.418;8.728;2024-01-11T08:04:42;36.35;;;19.05;;
23561;SDS011;11959;49.418;8.728;2024-01-11T08:07:08;37.58;;;19.67;;
23561;SDS011;11959;49.418;8.728;2024-01-11T08:09:33;40.38;;;20.05;;
23561;SDS011;11959;49.418;8.728;2024-01-11T08:11:59;38.65;;;20.35;;
23561;SDS011;11959;49.418;8.728;2024-01-11T08:14:24;37.95;;;19.50;;
23561;SDS011;11959;49.418;8.728;2024-01-11T08:16:50;34.97;;;18.65;;
23561;SDS011;11959;49.418;8.728;2024-01-11T08:19:16;39.83;;;19.92;;
23561;SDS011;11959;49.418;8.728;2024-01-11T08:21:42;33.30;;;19.27;;
23561;SDS011;11959;49.418;8.728;2024-01-11T08:24:07;34.42;;;18.45;;
23561;SDS011;11959;49.418;8.728;2024-01-11T08:26:33;35.72;;;19.00;;
23561;SDS011;11959;49.418;8.728;2024-01-11T08:28:59;33.47;;;18.75;;
23561;SDS011;11959;49.418;8.728;2024-01-11T08:31:25;37.83;;;19.35;;
23561;SDS011;11959;49.418;8.728;2024-01-11T08:33:51;32.08;;;18.05;;
23561;SDS011;11959;49.418;8.728;2024-01-11T08:36:16;32.78;;;17.90;;
23561;SDS011;11959;49.418;8.728;2024-01-11T08:38:42;34.25;;;18.67;;
23561;SDS011;11959;49.418;8.728;2024-01-11T08:41:08;34.63;;;18.50;;
23561;SDS011;11959;49.418;8.728;2024-01-11T08:43:33;32.13;;;18.85;;
23561;SDS011;11959;49.418;8.728;2024-01-11T08:45:59;37.58;;;19.30;;
23561;SDS011;11959;49.418;8.728;2024-01-11T08:48:25;37.13;;;19.80;;
23561;SDS011;11959;49.418;8.728;2024-01-11T08:50:50;37.38;;;19.67;;
23561;SDS011;11959;49.418;8.728;2024-01-11T08:53:16;35.03;;;19.20;;
23561;SDS011;11959;49.418;8.728;2024-01-11T08:55:42;35.08;;;18.77;;
23561;SDS011;11959;49.418;8.728;2024-01-11T08:58:08;35.15;;;18.98;;
23561;SDS011;11959;49.418;8.728;2024-01-11T09:00:35;37.13;;;20.38;;
23561;SDS011;11959;49.418;8.728;2024-01-11T09:03:02;39.17;;;20.23;;
23561;SDS011;11959;49.418;8.728;2024-01-11T09:05:28;37.78;;;19.63;;
23561;SDS011;11959;49.418;8.728;2024-01-11T09:07:54;38.58;;;20.73;;
23561;SDS011;11959;49.418;8.728;2024-01-11T09:10:20;36.97;;;20.08;;
23561;SDS011;11959;49.418;8.728;2024-01-11T09:12:46;36.17;;;20.50;;
23561;SDS011;11959;49.418;8.728;2024-01-11T09:15:11;38.40;;;20.88;;
23561;SDS011;11959;49.418;8.728;2024-01-11T09:17:37;39.55;;;19.85;;
23561;SDS011;11959;49.418;8.728;2024-01-11T09:20:04;36.20;;;19.42;;
23561;SDS011;11959;49.418;8.728;2024-01-11T09:22:30;33.92;;;19.65;;
23561;SDS011;11959;49.418;8.728;2024-01-11T09:24:55;37.28;;;18.67;;
23561;SDS011;11959;49.418;8.728;2024-01-11T09:27:21;32.10;;;18.42;;
23561;SDS011;11959;49.418;8.728;2024-01-11T09:29:47;36.65;;;19.83;;
23561;SDS011;11959;49.418;8.728;2024-01-11T09:32:13;40.70;;;19.83;;
23561;SDS011;11959;49.418;8.728;2024-01-11T09:34:38;37.30;;;19.25;;
23561;SDS011;11959;49.418;8.728;2024-01-11T09:37:04;37.97;;;20.02;;
23561;SDS011;11959;49.418;8.728;2024-01-11T09:39:30;38.25;;;19.90;;
23561;SDS011;11959;49.418;8.728;2024-01-11T09:42:03;42.90;;;20.02;;
23561;SDS011;11959;49.418;8.728;2024-01-11T09:44:34;42.35;;;21.20;;
23561;SDS011;11959;49.418;8.728;2024-01-11T09:47:02;52.30;;;23.55;;
23561;SDS011;11959;49.418;8.728;2024-01-11T09:49:30;44.95;;;23.27;;
23561;SDS011;11959;49.418;8.728;2024-01-11T09:51:58;38.95;;;19.85;;
23561;SDS011;11959;49.418;8.728;2024-01-11T09:54:26;35.80;;;19.38;;
23561;SDS011;11959;49.418;8.728;2024-01-11T09:56:53;34.03;;;19.50;;
23561;SDS011;11959;49.418;8.728;2024-01-11T09:59:21;37.97;;;19.70;;
23561;SDS011;11959;49.418;8.728;2024-01-11T10:01:49;40.65;;;21.55;;
23561;SDS011;11959;49.418;8.728;2024-01-11T10:04:16;38.53;;;21.33;;
23561;SDS011;11959;49.418;8.728;2024-01-11T10:06:42;37.40;;;20.27;;
23561;SDS011;11959;49.418;8.728;2024-01-11T10:09:09;39.38;;;20.77;;
23561;SDS011;11959;49.418;8.728;2024-01-11T10:11:35;41.42;;;23.25;;
23561;SDS011;11959;49.418;8.728;2024-01-11T10:14:01;42.50;;;22.27;;
23561;SDS011;11959;49.418;8.728;2024-01-11T10:16:27;40.63;;;21.98;;
23561;SDS011;11959;49.418;8.728;2024-01-11T10:18:56;43.97;;;23.48;;
23561;SDS011;11959;49.418;8.728;2024-01-11T10:21:26;46.15;;;23.30;;
23561;SDS011;11959;49.418;8.728;2024-01-11T10:23:52;41.03;;;21.73;;
23561;SDS011;11959;49.418;8.728;2024-01-11T10:26:17;40.80;;;23.27;;
23561;SDS011;11959;49.418;8.728;2024-01-11T10:28:47;43.97;;;23.20;;
23561;SDS011;11959;49.418;8.728;2024-01-11T10:31:12;46.90;;;24.10;;
23561;SDS011;11959;49.418;8.728;2024-01-11T10:33:41;48.22;;;24.08;;
23561;SDS011;11959;49.418;8.728;2024-01-11T10:36:07;43.15;;;23.27;;
23561;SDS011;11959;49.418;8.728;2024-01-11T10:38:35;44.45;;;24.00;;
23561;SDS011;11959;49.418;8.728;2024-01-11T10:41:04;46.38;;;23.77;;
23561;SDS011;11959;49.418;8.728;2024-01-11T10:43:31;43.50;;;23.80;;
23561;SDS011;11959;49.418;8.728;2024-01-11T10:46:00;38.95;;;21.80;;
23561;SDS011;11959;49.418;8.728;2024-01-11T10:48:30;43.15;;;22.83;;
23561;SDS011;11959;49.418;8.728;2024-01-11T10:51:00;38.92;;;22.98;;
23561;SDS011;11959;49.418;8.728;2024-01-11T10:53:43;42.88;;;22.52;;
23561;SDS011;11959;49.418;8.728;2024-01-11T10:56:15;39.85;;;21.65;;
23561;SDS011;11959;49.418;8.728;2024-01-11T10:58:42;38.35;;;20.95;;
23561;SDS011;11959;49.418;8.728;2024-01-11T11:01:09;44.55;;;22.95;;
23561;SDS011;11959;49.418;8.728;2024-01-11T11:03:37;46.47;;;23.63;;
23561;SDS011;11959;49.418;8.728;2024-01-11T11:06:04;46.85;;;24.67;;
23561;SDS011;11959;49.418;8.728;2024-01-11T11:08:31;39.03;;;22.63;;
23561;SDS011;11959;49.418;8.728;2024-01-11T11:10:59;45.53;;;23.52;;
23561;SDS011;11959;49.418;8.728;2024-01-11T11:13:26;48.03;;;23.63;;
23561;SDS011;11959;49.418;8.728;2024-01-11T11:15:52;41.30;;;23.35;;
23561;SDS011;11959;49.418;8.728;2024-01-11T11:18:19;41.83;;;23.63;;
23561;SDS011;11959;49.418;8.728;2024-01-11T11:20:46;46.65;;;25.33;;
23561;SDS011;11959;49.418;8.728;2024-01-11T11:23:14;46.53;;;24.88;;
23561;SDS011;11959;49.418;8.728;2024-01-11T11:25:42;43.42;;;23.52;;
23561;SDS011;11959;49.418;8.728;2024-01-11T11:28:14;44.60;;;23.20;;
23561;SDS011;11959;49.418;8.728;2024-01-11T11:30:45;48.90;;;24.60;;
23561;SDS011;11959;49.418;8.728;2024-01-11T11:33:18;41.00;;;23.02;;
23561;SDS011;11959;49.418;8.728;2024-01-11T11:35:54;42.70;;;23.08;;
23561;SDS011;11959;49.418;8.728;2024-01-11T11:38:31;42.08;;;23.02;;
23561;SDS011;11959;49.418;8.728;2024-01-11T11:40:58;40.97;;;22.23;;
23561;SDS011;11959;49.418;8.728;2024-01-11T11:43:28;45.22;;;24.50;;
23561;SDS011;11959;49.418;8.728;2024-01-11T11:45:55;39.03;;;22.13;;
23561;SDS011;11959;49.418;8.728;2024-01-11T11:51:15;38.45;;;22.63;;
23561;SDS011;11959;49.418;8.728;2024-01-11T11:53:42;42.55;;;21.75;;
23561;SDS011;11959;49.418;8.728;2024-01-11T11:56:08;36.55;;;21.52;;
23561;SDS011;11959;49.418;8.728;2024-01-11T11:58:35;41.78;;;22.58;;
23561;SDS011;11959;49.418;8.728;2024-01-11T12:01:02;39.53;;;22.58;;
23561;SDS011;11959;49.418;8.728;2024-01-11T12:03:28;39.30;;;21.85;;
23561;SDS011;11959;49.418;8.728;2024-01-11T12:06:05;40.38;;;22.40;;
23561;SDS011;11959;49.418;8.728;2024-01-11T12:08:32;39.67;;;22.23;;
23561;SDS011;11959;49.418;8.728;2024-01-11T12:10:58;39.08;;;22.00;;
23561;SDS011;11959;49.418;8.728;2024-01-11T12:13:24;41.25;;;23.48;;
23561;SDS011;11959;49.418;8.728;2024-01-11T12:15:50;47.55;;;24.35;;
23561;SDS011;11959;49.418;8.728;2024-01-11T12:18:17;45.35;;;23.23;;
23561;SDS011;11959;49.418;8.728;2024-01-11T12:20:42;47.97;;;26.20;;
23561;SDS011;11959;49.418;8.728;2024-01-11T12:23:08;49.80;;;25.50;;
23561;SDS011;11959;49.418;8.728;2024-01-11T12:25:34;54.08;;;27.02;;
23561;SDS011;11959;49.418;8.728;2024-01-11T12:28:01;45.88;;;25.73;;
23561;SDS011;11959;49.418;8.728;2024-01-11T12:30:27;50.13;;;26.15;;
23561;SDS011;11959;49.418;8.728;2024-01-11T12:32:55;47.45;;;25.55;;
23561;SDS011;11959;49.418;8.728;2024-01-11T12:35:21;45.58;;;25.00;;
23561;SDS011;11959;49.418;8.728;2024-01-11T12:37:54;48.63;;;26.63;;
23561;SDS011;11959;49.418;8.728;2024-01-11T12:40:20;53.88;;;27.73;;
23561;SDS011;11959;49.418;8.728;2024-01-11T12:42:49;50.10;;;27.58;;
23561;SDS011;11959;49.418;8.728;2024-01-11T12:45:15;53.15;;;27.00;;
23561;SDS011;11959;49.418;8.728;2024-01-11T12:47:44;51.58;;;27.65;;
23561;SDS011;11959;49.418;8.728;2024-01-11T12:50:11;53.78;;;28.17;;
23561;SDS011;11959;49.418;8.728;2024-01-11T12:52:37;53.85;;;28.98;;
23561;SDS011;11959;49.418;8.728;2024-01-11T12:55:03;51.28;;;28.88;;
23561;SDS011;11959;49.418;8.728;2024-01-11T12:57:30;56.00;;;29.35;;
23561;SDS011;11959;49.418;8.728;2024-01-11T13:00:08;54.67;;;29.20;;
23561;SDS011;11959;49.418;8.728;2024-01-11T13:02:39;58.03;;;29.05;;
23561;SDS011;11959;49.418;8.728;2024-01-11T13:05:05;54.85;;;27.95;;
23561;SDS011;11959;49.418;8.728;2024-01-11T13:07:32;56.67;;;30.08;;
23561;SDS011;11959;49.418;8.728;2024-01-11T13:09:59;52.80;;;29.73;;
23561;SDS011;11959;49.418;8.728;2024-01-11T13:12:25;52.97;;;28.63;;
23561;SDS011;11959;49.418;8.728;2024-01-11T13:14:50;50.70;;;29.20;;
23561;SDS011;11959;49.418;8.728;2024-01-11T13:17:18;53.30;;;29.13;;
23561;SDS011;11959;49.418;8.728;2024-01-11T13:19:43;57.22;;;29.98;;
23561;SDS011;11959;49.418;8.728;2024-01-11T13:22:10;56.70;;;29.75;;
23561;SDS011;11959;49.418;8.728;2024-01-11T13:24:35;48.50;;;28.27;;
23561;SDS011;11959;49.418;8.728;2024-01-11T13:27:01;53.72;;;29.23;;
23561;SDS011;11959;49.418;8.728;2024-01-11T13:29:27;53.53;;;27.65;;
23561;SDS011;11959;49.418;8.728;2024-01-11T13:31:52;52.40;;;29.48;;
23561;SDS011;11959;49.418;8.728;2024-01-11T13:34:18;53.03;;;28.55;;
23561;SDS011;11959;49.418;8.728;2024-01-11T13:36:44;54.63;;;29.58;;
23561;SDS011;11959;49.418;8.728;2024-01-11T13:39:10;54.42;;;29.10;;
23561;SDS011;11959;49.418;8.728;2024-01-11T13:41:36;53.17;;;27.85;;
23561;SDS011;11959;49.418;8.728;2024-01-11T13:44:05;54.55;;;28.65;;
23561;SDS011;11959;49.418;8.728;2024-01-11T13:46:32;55.80;;;29.70;;
23561;SDS011;11959;49.418;8.728;2024-01-11T13:48:57;57.03;;;30.05;;
23561;SDS011;11959;49.418;8.728;2024-01-11T13:51:23;54.33;;;29.75;;
23561;SDS011;11959;49.418;8.728;2024-01-11T13:53:49;56.88;;;28.38;;
23561;SDS011;11959;49.418;8.728;2024-01-11T13:56:14;62.42;;;30.20;;
23561;SDS011;11959;49.418;8.728;2024-01-11T13:58:40;69.75;;;33.80;;
23561;SDS011;11959;49.418;8.728;2024-01-11T14:01:06;69.20;;;33.13;;
23561;SDS011;11959;49.418;8.728;2024-01-11T14:03:32;55.17;;;30.20;;
23561;SDS011;11959;49.418;8.728;2024-01-11T14:05:58;56.65;;;28.95;;
23561;SDS011;11959;49.418;8.728;2024-01-11T14:08:25;59.88;;;29.40;;
23561;SDS011;11959;49.418;8.728;2024-01-11T14:10:51;53.20;;;28.13;;
23561;SDS011;11959;49.418;8.728;2024-01-11T14:13:16;52.95;;;29.42;;
23561;SDS011;11959;49.418;8.728;2024-01-11T14:15:42;60.72;;;30.83;;
23561;SDS011;11959;49.418;8.728;2024-01-11T14:18:08;55.30;;;29.88;;
23561;SDS011;11959;49.418;8.728;2024-01-11T14:20:34;56.20;;;29.48;;
23561;SDS011;11959;49.418;8.728;2024-01-11T14:23:00;55.63;;;29.35;;